sensor_id;sensor_type;location;lat;lon;timestamp;noise_LAeq;noise_LA_min;noise_LA_max;noise_LA01;noise_LA95
67324;Laerm;57667;51.438;5.968;2023-05-10T00:00:02;39.72;37.60;47.83;;
67324;Laerm;57667;51.438;5.968;2023-05-10T00:00:15;40.96;37.89;47.90;;
67324;Laerm;57667;51.438;5.968;2023-05-10T00:00:25;41.44;39.31;47.32;;
67324;Laerm;57667;51.438;5.968;2023-05-10T00:00:35;39.80;37.73;43.49;;
67324;Laerm;57667;51.438;5.968;2023-05-10T00:00:46;39.41;37.65;45.47;;
67324;Laerm;57667;51.438;5.968;2023-05-10T00:00:56;39.68;37.37;43.38;;
67324;Laerm;57667;51.438;5.968;2023-05-10T00:01:07;39.04;36.99;43.94;;
67324;Laerm;57667;51.438;5.968;2023-05-10T00:01:17;39.35;37.35;45.09;;
67324;Laerm;57667;51.438;5.968;2023-05-10T00:01:27;39.10;37.19;45.67;;
67324;Laerm;57667;51.438;5.968;2023-05-10T00:01:38;40.18;37.14;45.67;;
67324;Laerm;57667;51.438;5.968;2023-05-10T00:01:48;39.53;37.04;45.00;;
67324;Laerm;57667;51.438;5.968;2023-05-10T00:01:58;39.42;37.67;48.17;;
67324;Laerm;57667;51.438;5.968;2023-05-10T00:02:09;40.87;37.67;45.49;;
67324;Laerm;57667;51.438;5.968;2023-05-10T00:02:19;67.81;43.84;72.32;;
67324;Laerm;57667;51.438;5.968;2023-05-10T00:02:30;71.87;68.64;74.66;;
67324;Laerm;57667;51.438;5.968;2023-05-10T00:02:44;78.91;69.47;89.81;;
67324;Laerm;57667;51.438;5.968;2023-05-10T00:02:54;62.51;51.92;71.33;;
67324;Laerm;57667;51.438;5.968;2023-05-10T00:03:04;49.65;43.71;54.67;;
67324;Laerm;57667;51.438;5.968;2023-05-10T00:03:15;43.35;40.70;47.42;;
67324;Laerm;57667;51.438;5.968;2023-05-10T00:03:25;40.21;37.28;46.23;;
67324;Laerm;57667;51.438;5.968;2023-05-10T00:03:35;39.14;36.94;50.24;;
67324;Laerm;57667;51.438;5.968;2023-05-10T00:03:46;37.80;35.47;46.54;;
67324;Laerm;57667;51.438;5.968;2023-05-10T00:03:56;37.84;35.42;47.64;;
67324;Laerm;57667;51.438;5.968;2023-05-10T00:04:07;37.81;35.73;45.68;;
67324;Laerm;57667;51.438;5.968;2023-05-10T00:04:17;37.72;35.42;46.88;;
67324;Laerm;57667;51.438;5.968;2023-05-10T00:04:27;37.42;35.15;47.03;;
67324;Laerm;57667;51.438;5.968;2023-05-10T00:04:38;36.70;34.54;41.71;;
67324;Laerm;57667;51.438;5.968;2023-05-10T00:04:48;37.24;34.42;41.89;;
67324;Laerm;57667;51.438;5.968;2023-05-10T00:04:58;37.41;34.69;49.39;;
67324;Laerm;57667;51.438;5.968;2023-05-10T00:05:09;36.93;34.71;42.82;;
67324;Laerm;57667;51.438;5.968;2023-05-10T00:05:19;37.74;35.80;42.19;;
67324;Laerm;57667;51.438;5.968;2023-05-10T00:05:30;37.76;35.47;41.86;;
67324;Laerm;57667;51.438;5.968;2023-05-10T00:05:41;38.43;35.04;57.09;;
67324;Laerm;57667;51.438;5.968;2023-05-10T00:05:51;37.02;34.80;45.94;;
67324;Laerm;57667;51.438;5.968;2023-05-10T00:06:02;37.24;35.06;42.05;;
67324;Laerm;57667;51.438;5.968;2023-05-10T00:06:12;37.21;35.05;40.03;;
67324;Laerm;57667;51.438;5.968;2023-05-10T00:06:22;36.68;34.38;41.54;;
67324;Laerm;57667;51.438;5.968;2023-05-10T00:06:33;36.74;34.50;44.05;;
67324;Laerm;57667;51.438;5.968;2023-05-10T00:06:43;37.58;34.76;43.15;;
67324;Laerm;57667;51.438;5.968;2023-05-10T00:06:54;37.62;34.85;42.36;;
67324;Laerm;57667;51.438;5.968;2023-05-10T00:07:04;36.58;34.22;41.46;;
67324;Laerm;57667;51.438;5.968;2023-05-10T00:07:15;36.14;34.03;43.64;;
67324;Laerm;57667;51.438;5.968;2023-05-10T00:07:27;35.55;33.60;40.76;;
67324;Laerm;57667;51.438;5.968;2023-05-10T00:07:37;35.71;33.56;41.75;;
67324;Laerm;57667;51.438;5.968;2023-05-10T00:07:48;35.73;33.61;40.91;;
67324;Laerm;57667;51.438;5.968;2023-05-10T00:07:58;36.33;33.93;40.45;;
67324;Laerm;57667;51.438;5.968;2023-05-10T00:08:08;36.72;34.20;40.51;;
67324;Laerm;57667;51.438;5.968;2023-05-10T00:08:19;36.39;33.62;43.04;;
67324;Laerm;57667;51.438;5.968;2023-05-10T00:08:29;37.74;35.51;44.17;;
67324;Laerm;57667;51.438;5.968;2023-05-10T00:08:39;37.16;34.98;42.49;;
67324;Laerm;57667;51.438;5.968;2023-05-10T00:08:50;44.80;36.56;51.45;;
67324;Laerm;57667;51.438;5.968;2023-05-10T00:09:00;72.18;50.98;78.86;;
67324;Laerm;57667;51.438;5.968;2023-05-10T00:09:10;72.89;70.73;75.24;;
67324;Laerm;57667;51.438;5.968;2023-05-10T00:09:21;72.69;69.76;75.06;;
67324;Laerm;57667;51.438;5.968;2023-05-10T00:09:34;64.59;42.77;72.58;;
67324;Laerm;57667;51.438;5.968;2023-05-10T00:09:44;41.83;38.48;44.80;;
67324;Laerm;57667;51.438;5.968;2023-05-10T00:09:54;39.84;36.99;42.45;;
67324;Laerm;57667;51.438;5.968;2023-05-10T00:10:05;37.29;35.06;41.27;;
67324;Laerm;57667;51.438;5.968;2023-05-10T00:10:16;35.94;33.88;39.73;;
67324;Laerm;57667;51.438;5.968;2023-05-10T00:10:26;35.30;33.29;40.05;;
67324;Laerm;57667;51.438;5.968;2023-05-10T00:10:36;35.15;33.14;39.11;;
67324;Laerm;57667;51.438;5.968;2023-05-10T00:10:47;35.29;32.88;41.72;;
67324;Laerm;57667;51.438;5.968;2023-05-10T00:10:57;35.75;33.71;41.93;;
67324;Laerm;57667;51.438;5.968;2023-05-10T00:11:08;35.50;33.30;42.99;;
67324;Laerm;57667;51.438;5.968;2023-05-10T00:11:18;35.57;33.49;42.87;;
67324;Laerm;57667;51.438;5.968;2023-05-10T00:11:28;35.35;33.43;39.64;;
67324;Laerm;57667;51.438;5.968;2023-05-10T00:11:39;35.09;33.15;42.04;;
67324;Laerm;57667;51.438;5.968;2023-05-10T00:11:49;35.04;32.75;40.46;;
67324;Laerm;57667;51.438;5.968;2023-05-10T00:11:59;35.56;33.50;41.16;;
67324;Laerm;57667;51.438;5.968;2023-05-10T00:12:10;35.66;33.58;39.53;;
67324;Laerm;57667;51.438;5.968;2023-05-10T00:12:20;35.46;33.49;39.62;;
67324;Laerm;57667;51.438;5.968;2023-05-10T00:12:30;35.22;32.98;44.92;;
67324;Laerm;57667;51.438;5.968;2023-05-10T00:12:41;35.46;33.28;38.76;;
67324;Laerm;57667;51.438;5.968;2023-05-10T00:12:52;36.01;33.57;42.46;;
67324;Laerm;57667;51.438;5.968;2023-05-10T00:13:02;36.16;33.90;46.07;;
67324;Laerm;57667;51.438;5.968;2023-05-10T00:13:13;36.12;34.29;43.23;;
67324;Laerm;57667;51.438;5.968;2023-05-10T00:13:23;39.53;35.18;59.82;;
67324;Laerm;57667;51.438;5.968;2023-05-10T00:13:34;38.13;35.89;42.28;;
67324;Laerm;57667;51.438;5.968;2023-05-10T00:13:44;68.82;39.16;78.22;;
67324;Laerm;57667;51.438;5.968;2023-05-10T00:13:54;75.29;71.13;81.41;;
67324;Laerm;57667;51.438;5.968;2023-05-10T00:14:05;72.28;67.92;75.94;;
67324;Laerm;57667;51.438;5.968;2023-05-10T00:14:15;67.97;51.33;76.27;;
67324;Laerm;57667;51.438;5.968;2023-05-10T00:14:26;49.80;41.71;57.64;;
67324;Laerm;57667;51.438;5.968;2023-05-10T00:14:36;40.26;36.56;49.22;;
67324;Laerm;57667;51.438;5.968;2023-05-10T00:14:47;37.90;35.77;41.30;;
67324;Laerm;57667;51.438;5.968;2023-05-10T00:14:57;36.61;34.57;41.00;;
67324;Laerm;57667;51.438;5.968;2023-05-10T00:15:07;36.76;33.95;41.48;;
67324;Laerm;57667;51.438;5.968;2023-05-10T00:15:18;36.08;32.90;44.08;;
67324;Laerm;57667;51.438;5.968;2023-05-10T00:15:28;35.11;32.83;42.38;;
67324;Laerm;57667;51.438;5.968;2023-05-10T00:15:40;34.84;32.60;42.68;;
67324;Laerm;57667;51.438;5.968;2023-05-10T00:15:50;34.60;32.76;40.28;;
67324;Laerm;57667;51.438;5.968;2023-05-10T00:16:01;34.64;32.80;43.46;;
67324;Laerm;57667;51.438;5.968;2023-05-10T00:16:11;34.78;33.01;40.40;;
67324;Laerm;57667;51.438;5.968;2023-05-10T00:16:23;35.04;32.83;44.73;;
67324;Laerm;57667;51.438;5.968;2023-05-10T00:16:33;36.66;33.83;45.33;;
67324;Laerm;57667;51.438;5.968;2023-05-10T00:16:43;36.05;34.13;40.12;;
67324;Laerm;57667;51.438;5.968;2023-05-10T00:16:54;35.14;33.37;39.02;;
67324;Laerm;57667;51.438;5.968;2023-05-10T00:17:04;36.07;34.00;40.05;;
67324;Laerm;57667;51.438;5.968;2023-05-10T00:17:14;36.14;34.52;41.20;;
67324;Laerm;57667;51.438;5.968;2023-05-10T00:17:25;40.52;35.08;48.32;;
67324;Laerm;57667;51.438;5.968;2023-05-10T00:17:35;71.30;46.73;76.16;;
67324;Laerm;57667;51.438;5.968;2023-05-10T00:17:45;71.04;67.31;76.95;;
67324;Laerm;57667;51.438;5.968;2023-05-10T00:17:56;68.58;56.11;73.11;;
67324;Laerm;57667;51.438;5.968;2023-05-10T00:18:06;51.45;45.19;56.91;;
67324;Laerm;57667;51.438;5.968;2023-05-10T00:18:17;43.00;37.89;48.88;;
67324;Laerm;57667;51.438;5.968;2023-05-10T00:18:27;37.67;35.52;40.46;;
67324;Laerm;57667;51.438;5.968;2023-05-10T00:18:37;37.75;35.08;41.94;;
67324;Laerm;57667;51.438;5.968;2023-05-10T00:18:48;36.40;33.76;40.59;;
67324;Laerm;57667;51.438;5.968;2023-05-10T00:18:58;34.84;32.99;42.31;;
67324;Laerm;57667;51.438;5.968;2023-05-10T00:19:08;35.19;33.17;38.02;;
67324;Laerm;57667;51.438;5.968;2023-05-10T00:19:19;34.40;32.54;41.38;;
67324;Laerm;57667;51.438;5.968;2023-05-10T00:19:29;34.00;32.17;41.08;;
67324;Laerm;57667;51.438;5.968;2023-05-10T00:19:39;34.01;32.04;39.50;;
67324;Laerm;57667;51.438;5.968;2023-05-10T00:19:49;34.32;32.38;40.81;;
67324;Laerm;57667;51.438;5.968;2023-05-10T00:20:00;34.74;32.71;40.41;;
67324;Laerm;57667;51.438;5.968;2023-05-10T00:20:10;34.67;32.69;37.94;;
67324;Laerm;57667;51.438;5.968;2023-05-10T00:20:21;37.04;33.48;40.26;;
67324;Laerm;57667;51.438;5.968;2023-05-10T00:20:31;37.74;35.25;40.34;;
67324;Laerm;57667;51.438;5.968;2023-05-10T00:20:41;37.65;36.04;40.92;;
67324;Laerm;57667;51.438;5.968;2023-05-10T00:20:52;45.77;37.27;53.58;;
67324;Laerm;57667;51.438;5.968;2023-05-10T00:21:02;77.22;52.90;83.50;;
67324;Laerm;57667;51.438;5.968;2023-05-10T00:21:12;79.23;70.22;83.89;;
67324;Laerm;57667;51.438;5.968;2023-05-10T00:21:23;62.57;50.17;70.93;;
67324;Laerm;57667;51.438;5.968;2023-05-10T00:21:33;46.33;39.01;52.02;;
67324;Laerm;57667;51.438;5.968;2023-05-10T00:21:43;38.19;35.19;41.90;;
67324;Laerm;57667;51.438;5.968;2023-05-10T00:21:54;35.68;33.40;38.64;;
67324;Laerm;57667;51.438;5.968;2023-05-10T00:22:04;34.52;32.37;37.60;;
67324;Laerm;57667;51.438;5.968;2023-05-10T00:22:14;34.14;32.15;41.25;;
67324;Laerm;57667;51.438;5.968;2023-05-10T00:22:25;34.03;31.89;36.74;;
67324;Laerm;57667;51.438;5.968;2023-05-10T00:22:35;33.46;31.86;36.03;;
67324;Laerm;57667;51.438;5.968;2023-05-10T00:22:45;33.72;31.92;39.34;;
67324;Laerm;57667;51.438;5.968;2023-05-10T00:22:56;33.39;31.34;39.81;;
67324;Laerm;57667;51.438;5.968;2023-05-10T00:23:06;33.37;31.56;39.68;;
67324;Laerm;57667;51.438;5.968;2023-05-10T00:23:16;33.91;32.01;37.96;;
67324;Laerm;57667;51.438;5.968;2023-05-10T00:23:27;35.78;32.64;41.99;;
67324;Laerm;57667;51.438;5.968;2023-05-10T00:23:38;34.70;32.49;41.07;;
67324;Laerm;57667;51.438;5.968;2023-05-10T00:23:48;34.10;32.12;36.99;;
67324;Laerm;57667;51.438;5.968;2023-05-10T00:24:01;34.31;32.23;42.15;;
67324;Laerm;57667;51.438;5.968;2023-05-10T00:24:12;33.99;32.27;37.41;;
67324;Laerm;57667;51.438;5.968;2023-05-10T00:24:22;33.58;31.53;41.47;;
67324;Laerm;57667;51.438;5.968;2023-05-10T00:24:32;34.08;31.95;39.77;;
67324;Laerm;57667;51.438;5.968;2023-05-10T00:24:43;33.76;31.60;37.25;;
67324;Laerm;57667;51.438;5.968;2023-05-10T00:24:53;33.33;31.54;39.68;;
67324;Laerm;57667;51.438;5.968;2023-05-10T00:25:04;34.35;31.76;44.50;;
67324;Laerm;57667;51.438;5.968;2023-05-10T00:25:14;34.06;32.03;37.54;;
67324;Laerm;57667;51.438;5.968;2023-05-10T00:25:24;34.00;32.10;38.47;;
67324;Laerm;57667;51.438;5.968;2023-05-10T00:25:35;33.24;31.38;36.67;;
67324;Laerm;57667;51.438;5.968;2023-05-10T00:25:45;33.69;31.24;36.80;;
67324;Laerm;57667;51.438;5.968;2023-05-10T00:25:56;45.53;33.65;53.48;;
67324;Laerm;57667;51.438;5.968;2023-05-10T00:26:06;73.19;53.42;79.72;;
67324;Laerm;57667;51.438;5.968;2023-05-10T00:26:16;73.91;70.47;76.87;;
67324;Laerm;57667;51.438;5.968;2023-05-10T00:26:27;69.60;43.27;76.15;;
67324;Laerm;57667;51.438;5.968;2023-05-10T00:26:37;42.07;39.29;45.85;;
67324;Laerm;57667;51.438;5.968;2023-05-10T00:26:47;39.51;37.63;41.96;;
67324;Laerm;57667;51.438;5.968;2023-05-10T00:26:58;41.87;37.98;49.00;;
67324;Laerm;57667;51.438;5.968;2023-05-10T00:27:08;51.53;43.98;55.16;;
67324;Laerm;57667;51.438;5.968;2023-05-10T00:27:18;41.97;36.09;49.63;;
67324;Laerm;57667;51.438;5.968;2023-05-10T00:27:29;36.63;34.43;42.16;;
67324;Laerm;57667;51.438;5.968;2023-05-10T00:27:39;35.29;33.71;38.22;;
67324;Laerm;57667;51.438;5.968;2023-05-10T00:27:49;35.89;33.61;42.18;;
67324;Laerm;57667;51.438;5.968;2023-05-10T00:28:00;35.93;32.97;39.90;;
67324;Laerm;57667;51.438;5.968;2023-05-10T00:28:11;35.45;32.84;40.48;;
67324;Laerm;57667;51.438;5.968;2023-05-10T00:28:22;34.80;32.49;39.35;;
67324;Laerm;57667;51.438;5.968;2023-05-10T00:28:32;35.69;32.80;39.09;;
67324;Laerm;57667;51.438;5.968;2023-05-10T00:28:42;35.69;33.11;40.41;;
67324;Laerm;57667;51.438;5.968;2023-05-10T00:28:53;34.86;32.95;39.09;;
67324;Laerm;57667;51.438;5.968;2023-05-10T00:29:03;35.84;33.26;39.59;;
67324;Laerm;57667;51.438;5.968;2023-05-10T00:29:13;36.40;32.95;39.87;;
67324;Laerm;57667;51.438;5.968;2023-05-10T00:29:24;35.26;32.91;38.30;;
67324;Laerm;57667;51.438;5.968;2023-05-10T00:29:34;34.30;32.24;37.58;;
67324;Laerm;57667;51.438;5.968;2023-05-10T00:29:44;34.13;32.21;42.53;;
67324;Laerm;57667;51.438;5.968;2023-05-10T00:29:55;34.14;32.46;38.54;;
67324;Laerm;57667;51.438;5.968;2023-05-10T00:30:05;34.67;32.66;39.91;;
67324;Laerm;57667;51.438;5.968;2023-05-10T00:30:16;34.67;33.08;37.87;;
67324;Laerm;57667;51.438;5.968;2023-05-10T00:30:27;36.78;33.36;40.32;;
67324;Laerm;57667;51.438;5.968;2023-05-10T00:30:37;37.65;36.02;41.35;;
67324;Laerm;57667;51.438;5.968;2023-05-10T00:30:47;39.43;36.70;43.89;;
67324;Laerm;57667;51.438;5.968;2023-05-10T00:30:58;72.12;41.51;80.32;;
67324;Laerm;57667;51.438;5.968;2023-05-10T00:31:08;75.99;71.35;79.30;;
67324;Laerm;57667;51.438;5.968;2023-05-10T00:31:18;78.33;75.39;81.55;;
67324;Laerm;57667;51.438;5.968;2023-05-10T00:31:29;67.39;54.71;76.57;;
67324;Laerm;57667;51.438;5.968;2023-05-10T00:31:39;51.08;42.72;57.72;;
67324;Laerm;57667;51.438;5.968;2023-05-10T00:31:49;40.27;35.90;44.68;;
67324;Laerm;57667;51.438;5.968;2023-05-10T00:31:59;36.95;34.96;40.02;;
67324;Laerm;57667;51.438;5.968;2023-05-10T00:32:10;35.26;32.43;39.64;;
67324;Laerm;57667;51.438;5.968;2023-05-10T00:32:20;34.08;32.08;37.41;;
67324;Laerm;57667;51.438;5.968;2023-05-10T00:32:30;34.21;31.95;39.60;;
67324;Laerm;57667;51.438;5.968;2023-05-10T00:32:41;33.41;31.49;37.14;;
67324;Laerm;57667;51.438;5.968;2023-05-10T00:32:51;33.18;31.07;39.51;;
67324;Laerm;57667;51.438;5.968;2023-05-10T00:33:02;33.62;31.46;38.19;;
67324;Laerm;57667;51.438;5.968;2023-05-10T00:33:12;35.63;33.04;38.61;;
67324;Laerm;57667;51.438;5.968;2023-05-10T00:33:23;34.23;32.03;43.44;;
67324;Laerm;57667;51.438;5.968;2023-05-10T00:33:33;33.03;31.35;35.71;;
67324;Laerm;57667;51.438;5.968;2023-05-10T00:33:43;33.12;31.43;38.98;;
67324;Laerm;57667;51.438;5.968;2023-05-10T00:33:54;33.22;31.74;38.88;;
67324;Laerm;57667;51.438;5.968;2023-05-10T00:34:04;33.60;31.56;40.96;;
67324;Laerm;57667;51.438;5.968;2023-05-10T00:34:14;33.87;31.70;40.49;;
67324;Laerm;57667;51.438;5.968;2023-05-10T00:34:25;33.79;31.97;41.28;;
67324;Laerm;57667;51.438;5.968;2023-05-10T00:34:35;34.29;31.68;39.81;;
67324;Laerm;57667;51.438;5.968;2023-05-10T00:34:46;37.43;33.71;42.16;;
67324;Laerm;57667;51.438;5.968;2023-05-10T00:34:56;34.37;32.06;40.19;;
67324;Laerm;57667;51.438;5.968;2023-05-10T00:35:07;33.73;31.70;38.19;;
67324;Laerm;57667;51.438;5.968;2023-05-10T00:35:17;33.93;32.25;38.85;;
67324;Laerm;57667;51.438;5.968;2023-05-10T00:35:27;34.06;32.01;38.41;;
67324;Laerm;57667;51.438;5.968;2023-05-10T00:35:38;35.52;32.63;41.78;;
67324;Laerm;57667;51.438;5.968;2023-05-10T00:35:48;39.32;34.21;44.88;;
67324;Laerm;57667;51.438;5.968;2023-05-10T00:35:59;38.94;35.31;44.41;;
67324;Laerm;57667;51.438;5.968;2023-05-10T00:36:09;37.83;34.52;42.57;;
67324;Laerm;57667;51.438;5.968;2023-05-10T00:36:19;37.16;33.80;40.87;;
67324;Laerm;57667;51.438;5.968;2023-05-10T00:36:30;36.17;33.40;40.90;;
67324;Laerm;57667;51.438;5.968;2023-05-10T00:36:41;36.52;33.42;40.00;;
67324;Laerm;57667;51.438;5.968;2023-05-10T00:36:51;37.32;33.93;42.64;;
67324;Laerm;57667;51.438;5.968;2023-05-10T00:37:01;38.08;33.98;43.59;;
67324;Laerm;57667;51.438;5.968;2023-05-10T00:37:12;37.84;33.42;49.99;;
67324;Laerm;57667;51.438;5.968;2023-05-10T00:37:23;37.33;33.85;42.48;;
67324;Laerm;57667;51.438;5.968;2023-05-10T00:37:33;34.75;32.55;41.01;;
67324;Laerm;57667;51.438;5.968;2023-05-10T00:37:43;34.58;32.20;43.25;;
67324;Laerm;57667;51.438;5.968;2023-05-10T00:37:54;33.65;31.34;40.86;;
67324;Laerm;57667;51.438;5.968;2023-05-10T00:38:04;34.03;32.02;41.55;;
67324;Laerm;57667;51.438;5.968;2023-05-10T00:38:15;34.35;32.49;39.87;;
67324;Laerm;57667;51.438;5.968;2023-05-10T00:38:25;34.49;31.96;47.55;;
67324;Laerm;57667;51.438;5.968;2023-05-10T00:38:35;34.25;32.06;41.08;;
67324;Laerm;57667;51.438;5.968;2023-05-10T00:38:46;33.81;31.45;40.25;;
67324;Laerm;57667;51.438;5.968;2023-05-10T00:38:56;33.91;31.15;42.50;;
67324;Laerm;57667;51.438;5.968;2023-05-10T00:39:06;34.32;32.17;40.56;;
67324;Laerm;57667;51.438;5.968;2023-05-10T00:39:17;38.11;33.96;44.89;;
67324;Laerm;57667;51.438;5.968;2023-05-10T00:39:28;50.66;40.27;55.46;;
67324;Laerm;57667;51.438;5.968;2023-05-10T00:39:38;50.48;37.10;55.22;;
67324;Laerm;57667;51.438;5.968;2023-05-10T00:39:48;35.98;33.00;47.33;;
67324;Laerm;57667;51.438;5.968;2023-05-10T00:39:59;34.51;32.57;41.38;;
67324;Laerm;57667;51.438;5.968;2023-05-10T00:40:09;34.86;31.99;41.49;;
67324;Laerm;57667;51.438;5.968;2023-05-10T00:40:23;34.03;31.98;41.87;;
67324;Laerm;57667;51.438;5.968;2023-05-10T00:40:33;33.79;31.81;42.17;;
67324;Laerm;57667;51.438;5.968;2023-05-10T00:40:45;34.31;31.71;38.71;;
67324;Laerm;57667;51.438;5.968;2023-05-10T00:40:56;33.54;31.33;40.48;;
67324;Laerm;57667;51.438;5.968;2023-05-10T00:41:06;33.01;31.01;39.11;;
67324;Laerm;57667;51.438;5.968;2023-05-10T00:41:16;33.35;31.37;42.19;;
67324;Laerm;57667;51.438;5.968;2023-05-10T00:41:27;34.92;32.52;41.14;;
67324;Laerm;57667;51.438;5.968;2023-05-10T00:41:37;34.40;31.52;42.55;;
67324;Laerm;57667;51.438;5.968;2023-05-10T00:41:47;34.43;31.75;38.71;;
67324;Laerm;57667;51.438;5.968;2023-05-10T00:41:58;35.43;31.90;43.67;;
67324;Laerm;57667;51.438;5.968;2023-05-10T00:42:08;35.56;32.13;43.15;;
67324;Laerm;57667;51.438;5.968;2023-05-10T00:42:18;33.52;31.43;41.05;;
67324;Laerm;57667;51.438;5.968;2023-05-10T00:42:29;33.73;31.45;38.32;;
67324;Laerm;57667;51.438;5.968;2023-05-10T00:42:39;34.96;31.72;41.22;;
67324;Laerm;57667;51.438;5.968;2023-05-10T00:42:50;33.19;31.04;38.06;;
67324;Laerm;57667;51.438;5.968;2023-05-10T00:43:00;32.77;30.72;40.14;;
67324;Laerm;57667;51.438;5.968;2023-05-10T00:43:11;32.92;30.90;42.71;;
67324;Laerm;57667;51.438;5.968;2023-05-10T00:43:21;32.44;30.53;43.82;;
67324;Laerm;57667;51.438;5.968;2023-05-10T00:43:32;32.62;30.57;43.39;;
67324;Laerm;57667;51.438;5.968;2023-05-10T00:43:42;32.76;31.01;41.96;;
67324;Laerm;57667;51.438;5.968;2023-05-10T00:43:52;32.63;30.48;37.98;;
67324;Laerm;57667;51.438;5.968;2023-05-10T00:44:03;32.45;30.85;38.42;;
67324;Laerm;57667;51.438;5.968;2023-05-10T00:44:14;32.53;30.38;42.46;;
67324;Laerm;57667;51.438;5.968;2023-05-10T00:44:24;32.30;30.37;37.17;;
67324;Laerm;57667;51.438;5.968;2023-05-10T00:44:34;33.24;31.03;45.32;;
67324;Laerm;57667;51.438;5.968;2023-05-10T00:44:45;32.93;31.13;39.26;;
67324;Laerm;57667;51.438;5.968;2023-05-10T00:44:56;32.82;30.51;40.03;;
67324;Laerm;57667;51.438;5.968;2023-05-10T00:45:07;32.96;30.81;42.85;;
67324;Laerm;57667;51.438;5.968;2023-05-10T00:45:18;32.97;30.95;40.31;;
67324;Laerm;57667;51.438;5.968;2023-05-10T00:45:32;33.49;31.33;39.11;;
67324;Laerm;57667;51.438;5.968;2023-05-10T00:45:43;38.51;32.33;45.95;;
67324;Laerm;57667;51.438;5.968;2023-05-10T00:45:53;70.61;44.48;79.87;;
67324;Laerm;57667;51.438;5.968;2023-05-10T00:46:04;75.45;71.40;80.04;;
67324;Laerm;57667;51.438;5.968;2023-05-10T00:46:15;79.21;55.63;85.74;;
67324;Laerm;57667;51.438;5.968;2023-05-10T00:46:25;49.93;42.20;57.22;;
67324;Laerm;57667;51.438;5.968;2023-05-10T00:46:36;42.70;40.18;46.11;;
67324;Laerm;57667;51.438;5.968;2023-05-10T00:46:46;40.38;37.90;44.23;;
67324;Laerm;57667;51.438;5.968;2023-05-10T00:46:57;38.34;34.74;42.03;;
67324;Laerm;57667;51.438;5.968;2023-05-10T00:47:07;36.81;33.56;42.73;;
67324;Laerm;57667;51.438;5.968;2023-05-10T00:47:18;37.35;34.26;40.68;;
67324;Laerm;57667;51.438;5.968;2023-05-10T00:47:28;36.41;33.34;39.58;;
67324;Laerm;57667;51.438;5.968;2023-05-10T00:47:39;35.20;32.36;37.54;;
67324;Laerm;57667;51.438;5.968;2023-05-10T00:47:49;34.77;32.21;42.05;;
67324;Laerm;57667;51.438;5.968;2023-05-10T00:48:02;34.92;32.14;38.86;;
67324;Laerm;57667;51.438;5.968;2023-05-10T00:48:12;34.47;32.30;41.68;;
67324;Laerm;57667;51.438;5.968;2023-05-10T00:48:23;33.51;30.95;37.40;;
67324;Laerm;57667;51.438;5.968;2023-05-10T00:48:33;33.82;31.03;42.81;;
67324;Laerm;57667;51.438;5.968;2023-05-10T00:48:44;34.47;31.59;39.61;;
67324;Laerm;57667;51.438;5.968;2023-05-10T00:48:54;33.34;31.15;36.24;;
67324;Laerm;57667;51.438;5.968;2023-05-10T00:49:05;33.45;31.27;39.65;;
67324;Laerm;57667;51.438;5.968;2023-05-10T00:49:16;33.66;30.71;42.97;;
67324;Laerm;57667;51.438;5.968;2023-05-10T00:49:26;32.55;30.82;36.01;;
67324;Laerm;57667;51.438;5.968;2023-05-10T00:49:37;32.50;30.90;42.68;;
67324;Laerm;57667;51.438;5.968;2023-05-10T00:49:47;32.47;30.67;38.68;;
67324;Laerm;57667;51.438;5.968;2023-05-10T00:49:58;32.94;30.67;40.69;;
67324;Laerm;57667;51.438;5.968;2023-05-10T00:50:08;32.28;30.67;36.95;;
67324;Laerm;57667;51.438;5.968;2023-05-10T00:50:19;32.48;30.21;41.27;;
67324;Laerm;57667;51.438;5.968;2023-05-10T00:50:30;32.78;30.59;42.85;;
67324;Laerm;57667;51.438;5.968;2023-05-10T00:50:40;32.47;30.51;42.99;;
67324;Laerm;57667;51.438;5.968;2023-05-10T00:50:51;32.43;30.59;36.11;;
67324;Laerm;57667;51.438;5.968;2023-05-10T00:51:01;32.75;30.55;42.65;;
67324;Laerm;57667;51.438;5.968;2023-05-10T00:51:13;32.77;31.21;39.04;;
67324;Laerm;57667;51.438;5.968;2023-05-10T00:51:23;32.82;30.85;38.73;;
67324;Laerm;57667;51.438;5.968;2023-05-10T00:51:34;32.64;30.99;38.88;;
67324;Laerm;57667;51.438;5.968;2023-05-10T00:51:44;33.49;31.43;43.10;;
67324;Laerm;57667;51.438;5.968;2023-05-10T00:51:55;34.38;31.52;40.04;;
67324;Laerm;57667;51.438;5.968;2023-05-10T00:52:05;35.30;32.22;39.77;;
67324;Laerm;57667;51.438;5.968;2023-05-10T00:52:16;45.21;34.35;52.29;;
67324;Laerm;57667;51.438;5.968;2023-05-10T00:52:27;75.82;51.37;81.42;;
67324;Laerm;57667;51.438;5.968;2023-05-10T00:52:37;80.50;76.83;85.60;;
67324;Laerm;57667;51.438;5.968;2023-05-10T00:52:48;75.24;48.40;80.73;;
67324;Laerm;57667;51.438;5.968;2023-05-10T00:52:59;45.73;40.99;50.09;;
67324;Laerm;57667;51.438;5.968;2023-05-10T00:53:09;41.71;39.31;44.50;;
67324;Laerm;57667;51.438;5.968;2023-05-10T00:53:23;39.73;36.10;42.25;;
67324;Laerm;57667;51.438;5.968;2023-05-10T00:53:34;35.97;34.08;41.48;;
67324;Laerm;57667;51.438;5.968;2023-05-10T00:53:45;36.14;33.72;39.49;;
67324;Laerm;57667;51.438;5.968;2023-05-10T00:53:55;36.51;34.08;40.73;;
67324;Laerm;57667;51.438;5.968;2023-05-10T00:54:06;36.60;34.07;41.15;;
67324;Laerm;57667;51.438;5.968;2023-05-10T00:54:17;35.12;32.85;38.43;;
67324;Laerm;57667;51.438;5.968;2023-05-10T00:54:27;36.58;32.27;43.90;;
67324;Laerm;57667;51.438;5.968;2023-05-10T00:54:38;34.44;31.83;39.48;;
67324;Laerm;57667;51.438;5.968;2023-05-10T00:54:49;34.61;31.82;41.68;;
67324;Laerm;57667;51.438;5.968;2023-05-10T00:55:00;33.91;31.85;41.01;;
67324;Laerm;57667;51.438;5.968;2023-05-10T00:55:10;33.54;31.31;42.43;;
67324;Laerm;57667;51.438;5.968;2023-05-10T00:55:22;33.44;31.29;39.35;;
67324;Laerm;57667;51.438;5.968;2023-05-10T00:55:32;33.33;31.45;38.27;;
67324;Laerm;57667;51.438;5.968;2023-05-10T00:55:43;33.46;31.37;38.98;;
67324;Laerm;57667;51.438;5.968;2023-05-10T00:55:53;33.36;31.16;47.80;;
67324;Laerm;57667;51.438;5.968;2023-05-10T00:56:03;32.61;30.73;38.50;;
67324;Laerm;57667;51.438;5.968;2023-05-10T00:56:14;32.91;30.74;36.25;;
67324;Laerm;57667;51.438;5.968;2023-05-10T00:56:25;33.04;30.92;40.44;;
67324;Laerm;57667;51.438;5.968;2023-05-10T00:56:37;33.04;30.86;36.35;;
67324;Laerm;57667;51.438;5.968;2023-05-10T00:56:47;39.62;33.89;43.98;;
67324;Laerm;57667;51.438;5.968;2023-05-10T00:56:59;56.22;43.49;60.77;;
67324;Laerm;57667;51.438;5.968;2023-05-10T00:57:09;42.00;36.07;51.53;;
67324;Laerm;57667;51.438;5.968;2023-05-10T00:57:20;35.30;33.41;39.76;;
67324;Laerm;57667;51.438;5.968;2023-05-10T00:57:31;33.54;31.58;41.63;;
67324;Laerm;57667;51.438;5.968;2023-05-10T00:57:41;32.94;31.11;40.20;;
67324;Laerm;57667;51.438;5.968;2023-05-10T00:57:52;33.69;31.64;37.44;;
67324;Laerm;57667;51.438;5.968;2023-05-10T00:58:03;33.70;31.71;39.01;;
67324;Laerm;57667;51.438;5.968;2023-05-10T00:58:14;33.10;30.52;45.45;;
67324;Laerm;57667;51.438;5.968;2023-05-10T00:58:24;32.49;30.81;34.76;;
67324;Laerm;57667;51.438;5.968;2023-05-10T00:58:38;33.02;31.21;40.23;;
67324;Laerm;57667;51.438;5.968;2023-05-10T00:58:49;32.74;31.02;41.40;;
67324;Laerm;57667;51.438;5.968;2023-05-10T00:58:59;32.56;30.84;34.91;;